sensor_id;sensor_type;location;lat;lon;timestamp;pressure;altitude;pressure_sealevel;temperature;humidity
75594;BME280;64176;49.156;7.810;2023-07-09T00:02:01;99438.00;;;19.47;75.38
75594;BME280;64176;49.156;7.810;2023-07-09T00:04:46;99443.53;;;19.69;74.33
75594;BME280;64176;49.156;7.810;2023-07-09T00:07:31;99439.97;;;20.01;73.18
75594;BME280;64176;49.156;7.810;2023-07-09T00:10:20;99442.50;;;20.04;72.93
75594;BME280;64176;49.156;7.810;2023-07-09T00:13:07;99436.59;;;19.97;73.01
75594;BME280;64176;49.156;7.810;2023-07-09T00:15:59;99447.28;;;19.90;73.17
75594;BME280;64176;49.156;7.810;2023-07-09T00:18:44;99447.19;;;19.93;73.29
75594;BME280;64176;49.156;7.810;2023-07-09T00:21:31;99443.72;;;19.92;73.23
75594;BME280;64176;49.156;7.810;2023-07-09T00:24:17;99444.97;;;19.79;73.42
75594;BME280;64176;49.156;7.810;2023-07-09T00:27:01;99427.47;;;19.80;73.44
75594;BME280;64176;49.156;7.810;2023-07-09T00:29:46;99440.44;;;19.55;74.75
75594;BME280;64176;49.156;7.810;2023-07-09T00:32:30;99439.84;;;19.44;75.15
75594;BME280;64176;49.156;7.810;2023-07-09T00:35:15;99446.44;;;19.26;76.03
75594;BME280;64176;49.156;7.810;2023-07-09T00:37:59;99447.31;;;19.26;76.03
75594;BME280;64176;49.156;7.810;2023-07-09T00:41:34;99443.97;;;19.54;74.87
75594;BME280;64176;49.156;7.810;2023-07-09T00:43:53;99439.97;;;19.39;75.14
75594;BME280;64176;49.156;7.810;2023-07-09T00:49:35;99445.28;;;19.04;77.14
75594;BME280;64176;49.156;7.810;2023-07-09T00:52:29;99443.00;;;19.24;76.42
75594;BME280;64176;49.156;7.810;2023-07-09T00:55:21;99443.50;;;19.06;76.65
75594;BME280;64176;49.156;7.810;2023-07-09T00:58:10;99438.19;;;19.09;76.29
75594;BME280;64176;49.156;7.810;2023-07-09T01:01:03;99454.34;;;18.90;77.37
75594;BME280;64176;49.156;7.810;2023-07-09T01:03:55;99455.41;;;19.17;75.83
75594;BME280;64176;49.156;7.810;2023-07-09T01:06:46;99455.69;;;19.39;75.20
75594;BME280;64176;49.156;7.810;2023-07-09T01:09:32;99455.81;;;19.35;75.36
75594;BME280;64176;49.156;7.810;2023-07-09T01:12:20;99454.47;;;19.20;75.90
75594;BME280;64176;49.156;7.810;2023-07-09T01:15:05;99455.97;;;19.28;75.42
75594;BME280;64176;49.156;7.810;2023-07-09T01:17:51;99460.44;;;19.25;75.62
75594;BME280;64176;49.156;7.810;2023-07-09T01:20:38;99451.81;;;19.21;75.72
75594;BME280;64176;49.156;7.810;2023-07-09T01:23:23;99448.94;;;18.98;76.31
75594;BME280;64176;49.156;7.810;2023-07-09T01:26:07;99471.38;;;18.73;77.98
75594;BME280;64176;49.156;7.810;2023-07-09T01:28:55;99465.22;;;18.75;77.77
75594;BME280;64176;49.156;7.810;2023-07-09T01:31:39;99469.81;;;18.66;78.30
75594;BME280;64176;49.156;7.810;2023-07-09T01:34:23;99466.03;;;18.77;77.54
75594;BME280;64176;49.156;7.810;2023-07-09T01:37:09;99455.25;;;18.89;76.99
75594;BME280;64176;49.156;7.810;2023-07-09T01:39:53;99458.78;;;18.88;76.98
75594;BME280;64176;49.156;7.810;2023-07-09T01:42:42;99458.53;;;18.98;76.54
75594;BME280;64176;49.156;7.810;2023-07-09T01:45:28;99468.34;;;18.89;76.80
75594;BME280;64176;49.156;7.810;2023-07-09T01:48:12;99453.47;;;18.90;76.48
75594;BME280;64176;49.156;7.810;2023-07-09T01:51:00;99461.66;;;18.39;78.79
75594;BME280;64176;49.156;7.810;2023-07-09T01:53:46;99467.50;;;18.12;80.43
75594;BME280;64176;49.156;7.810;2023-07-09T01:56:30;99462.63;;;18.35;79.71
75594;BME280;64176;49.156;7.810;2023-07-09T01:59:17;99459.63;;;18.52;78.26
75594;BME280;64176;49.156;7.810;2023-07-09T02:02:01;99465.44;;;18.66;77.14
75594;BME280;64176;49.156;7.810;2023-07-09T02:04:48;99466.50;;;18.58;77.70
75594;BME280;64176;49.156;7.810;2023-07-09T02:07:32;99465.00;;;18.46;78.38
75594;BME280;64176;49.156;7.810;2023-07-09T02:10:17;99469.56;;;18.38;78.72
75594;BME280;64176;49.156;7.810;2023-07-09T02:13:01;99469.44;;;18.44;78.61
75594;BME280;64176;49.156;7.810;2023-07-09T02:15:45;99467.94;;;18.32;79.19
75594;BME280;64176;49.156;7.810;2023-07-09T02:18:29;99467.19;;;18.27;79.17
75594;BME280;64176;49.156;7.810;2023-07-09T02:21:13;99472.81;;;18.47;78.50
75594;BME280;64176;49.156;7.810;2023-07-09T02:23:58;99455.59;;;18.37;78.55
75594;BME280;64176;49.156;7.810;2023-07-09T02:26:44;99460.38;;;18.20;78.98
75594;BME280;64176;49.156;7.810;2023-07-09T02:29:29;99466.56;;;18.16;79.56
75594;BME280;64176;49.156;7.810;2023-07-09T02:32:18;99459.97;;;17.98;80.40
75594;BME280;64176;49.156;7.810;2023-07-09T02:35:08;99464.63;;;17.84;81.32
75594;BME280;64176;49.156;7.810;2023-07-09T02:37:52;99459.38;;;18.24;79.65
75594;BME280;64176;49.156;7.810;2023-07-09T02:40:36;99461.84;;;18.32;79.26
75594;BME280;64176;49.156;7.810;2023-07-09T02:43:22;99465.47;;;17.86;80.82
75594;BME280;64176;49.156;7.810;2023-07-09T02:46:07;99465.91;;;17.65;81.81
75594;BME280;64176;49.156;7.810;2023-07-09T02:48:53;99463.06;;;17.29;83.35
75594;BME280;64176;49.156;7.810;2023-07-09T02:51:38;99467.47;;;17.72;81.88
75594;BME280;64176;49.156;7.810;2023-07-09T02:54:22;99469.84;;;17.84;81.02
75594;BME280;64176;49.156;7.810;2023-07-09T02:57:06;99479.03;;;18.03;80.38
75594;BME280;64176;49.156;7.810;2023-07-09T02:59:51;99471.91;;;18.11;79.42
75594;BME280;64176;49.156;7.810;2023-07-09T03:02:35;99478.41;;;17.91;80.35
75594;BME280;64176;49.156;7.810;2023-07-09T03:05:19;99477.13;;;17.68;81.29
75594;BME280;64176;49.156;7.810;2023-07-09T03:08:03;99478.66;;;17.78;80.48
75594;BME280;64176;49.156;7.810;2023-07-09T03:10:47;99483.66;;;17.91;79.51
75594;BME280;64176;49.156;7.810;2023-07-09T03:13:39;99483.88;;;17.80;80.16
75594;BME280;64176;49.156;7.810;2023-07-09T03:16:23;99488.72;;;17.54;81.80
75594;BME280;64176;49.156;7.810;2023-07-09T03:19:07;99497.50;;;17.50;82.52
75594;BME280;64176;49.156;7.810;2023-07-09T03:21:52;99488.72;;;17.54;80.97
75594;BME280;64176;49.156;7.810;2023-07-09T03:24:36;99493.69;;;17.69;80.64
75594;BME280;64176;49.156;7.810;2023-07-09T03:27:20;99498.28;;;17.56;80.93
75594;BME280;64176;49.156;7.810;2023-07-09T03:30:05;99498.91;;;17.69;80.66
75594;BME280;64176;49.156;7.810;2023-07-09T03:32:51;99498.13;;;17.65;80.72
75594;BME280;64176;49.156;7.810;2023-07-09T03:35:36;99501.88;;;17.49;81.95
75594;BME280;64176;49.156;7.810;2023-07-09T03:38:26;99504.81;;;17.31;83.08
75594;BME280;64176;49.156;7.810;2023-07-09T03:41:10;99503.44;;;17.10;84.45
75594;BME280;64176;49.156;7.810;2023-07-09T03:43:57;99504.66;;;17.40;82.68
75594;BME280;64176;49.156;7.810;2023-07-09T03:46:41;99509.06;;;17.36;83.00
75594;BME280;64176;49.156;7.810;2023-07-09T03:49:27;99509.22;;;17.27;83.10
75594;BME280;64176;49.156;7.810;2023-07-09T03:52:14;99514.38;;;17.33;82.90
75594;BME280;64176;49.156;7.810;2023-07-09T03:54:58;99510.72;;;17.42;82.70
75594;BME280;64176;49.156;7.810;2023-07-09T03:57:45;99513.81;;;17.15;84.16
75594;BME280;64176;49.156;7.810;2023-07-09T04:00:29;99509.63;;;17.54;81.39
75594;BME280;64176;49.156;7.810;2023-07-09T04:03:14;99513.53;;;17.31;82.20
75594;BME280;64176;49.156;7.810;2023-07-09T04:05:58;99516.81;;;17.42;81.55
75594;BME280;64176;49.156;7.810;2023-07-09T04:08:42;99523.13;;;17.31;82.74
75594;BME280;64176;49.156;7.810;2023-07-09T04:11:31;99524.56;;;17.47;81.64
75594;BME280;64176;49.156;7.810;2023-07-09T04:14:15;99528.03;;;17.47;81.82
75594;BME280;64176;49.156;7.810;2023-07-09T04:17:02;99520.19;;;17.47;81.63
75594;BME280;64176;49.156;7.810;2023-07-09T04:19:50;99526.19;;;17.54;81.50
75594;BME280;64176;49.156;7.810;2023-07-09T04:22:35;99524.31;;;17.59;81.40
75594;BME280;64176;49.156;7.810;2023-07-09T04:25:19;99526.97;;;17.58;81.53
75594;BME280;64176;49.156;7.810;2023-07-09T04:28:03;99536.19;;;17.29;82.61
75594;BME280;64176;49.156;7.810;2023-07-09T04:30:49;99531.59;;;17.43;82.35
75594;BME280;64176;49.156;7.810;2023-07-09T04:33:33;99534.03;;;17.53;81.69
75594;BME280;64176;49.156;7.810;2023-07-09T04:36:19;99530.84;;;17.37;82.51
75594;BME280;64176;49.156;7.810;2023-07-09T04:39:06;99532.50;;;17.41;82.50
75594;BME280;64176;49.156;7.810;2023-07-09T04:41:50;99532.53;;;17.39;82.73
75594;BME280;64176;49.156;7.810;2023-07-09T04:44:33;99539.06;;;17.66;81.67
75594;BME280;64176;49.156;7.810;2023-07-09T04:47:17;99538.72;;;17.83;80.87
75594;BME280;64176;49.156;7.810;2023-07-09T04:50:05;99524.72;;;17.87;80.45
75594;BME280;64176;49.156;7.810;2023-07-09T04:52:49;99533.19;;;18.00;79.98
75594;BME280;64176;49.156;7.810;2023-07-09T04:55:33;99524.50;;;17.98;79.50
75594;BME280;64176;49.156;7.810;2023-07-09T04:58:17;99537.47;;;18.01;80.03
75594;BME280;64176;49.156;7.810;2023-07-09T05:01:05;99535.41;;;18.18;78.87
75594;BME280;64176;49.156;7.810;2023-07-09T05:03:48;99534.34;;;17.83;81.03
75594;BME280;64176;49.156;7.810;2023-07-09T05:06:35;99532.88;;;17.69;82.15
75594;BME280;64176;49.156;7.810;2023-07-09T05:09:19;99526.66;;;17.77;82.10
75594;BME280;64176;49.156;7.810;2023-07-09T05:12:03;99528.31;;;17.80;82.43
75594;BME280;64176;49.156;7.810;2023-07-09T05:14:47;99527.88;;;18.01;81.58
75594;BME280;64176;49.156;7.810;2023-07-09T05:17:31;99528.47;;;18.15;80.94
75594;BME280;64176;49.156;7.810;2023-07-09T05:20:15;99532.13;;;18.48;79.27
75594;BME280;64176;49.156;7.810;2023-07-09T05:23:00;99522.31;;;18.60;78.86
75594;BME280;64176;49.156;7.810;2023-07-09T05:25:44;99516.09;;;18.65;78.59
75594;BME280;64176;49.156;7.810;2023-07-09T05:28:30;99520.19;;;18.75;78.67
75594;BME280;64176;49.156;7.810;2023-07-09T05:31:14;99521.06;;;19.11;76.85
75594;BME280;64176;49.156;7.810;2023-07-09T05:33:59;99516.19;;;19.32;75.97
75594;BME280;64176;49.156;7.810;2023-07-09T05:36:47;99523.41;;;19.56;75.09
75594;BME280;64176;49.156;7.810;2023-07-09T05:39:31;99525.38;;;19.80;74.20
75594;BME280;64176;49.156;7.810;2023-07-09T05:42:15;99510.72;;;20.04;73.18
75594;BME280;64176;49.156;7.810;2023-07-09T05:44:59;99517.50;;;20.11;73.00
75594;BME280;64176;49.156;7.810;2023-07-09T05:47:43;99523.84;;;20.33;72.38
75594;BME280;64176;49.156;7.810;2023-07-09T05:50:28;99523.22;;;20.55;71.99
75594;BME280;64176;49.156;7.810;2023-07-09T05:53:12;99513.84;;;20.76;71.22
75594;BME280;64176;49.156;7.810;2023-07-09T05:55:56;99517.75;;;20.89;70.72
75594;BME280;64176;49.156;7.810;2023-07-09T05:58:43;99512.03;;;21.04;70.00
75594;BME280;64176;49.156;7.810;2023-07-09T06:01:29;99512.88;;;21.04;69.93
75594;BME280;64176;49.156;7.810;2023-07-09T06:04:13;99519.34;;;21.47;68.62
75594;BME280;64176;49.156;7.810;2023-07-09T06:06:57;99522.31;;;21.63;67.69
75594;BME280;64176;49.156;7.810;2023-07-09T06:09:41;99520.69;;;21.84;67.42
75594;BME280;64176;49.156;7.810;2023-07-09T06:12:26;99518.25;;;22.02;66.56
75594;BME280;64176;49.156;7.810;2023-07-09T06:15:10;99513.16;;;22.21;66.11
75594;BME280;64176;49.156;7.810;2023-07-09T06:17:55;99509.19;;;22.56;64.88
75594;BME280;64176;49.156;7.810;2023-07-09T06:20:39;99516.69;;;22.43;64.64
75594;BME280;64176;49.156;7.810;2023-07-09T06:23:25;99519.06;;;22.28;65.33
75594;BME280;64176;49.156;7.810;2023-07-09T06:26:10;99517.22;;;22.53;64.21
75594;BME280;64176;49.156;7.810;2023-07-09T06:28:54;99520.75;;;22.97;63.07
75594;BME280;64176;49.156;7.810;2023-07-09T06:31:38;99518.50;;;23.30;61.55
75594;BME280;64176;49.156;7.810;2023-07-09T06:34:23;99501.69;;;25.56;56.00
75594;BME280;64176;49.156;7.810;2023-07-09T06:37:07;99498.03;;;25.76;55.07
75594;BME280;64176;49.156;7.810;2023-07-09T06:39:54;99498.72;;;26.61;52.68
75594;BME280;64176;49.156;7.810;2023-07-09T06:42:38;99500.50;;;26.45;52.60
75594;BME280;64176;49.156;7.810;2023-07-09T06:45:37;99501.00;;;26.52;52.37
75594;BME280;64176;49.156;7.810;2023-07-09T06:48:26;99498.09;;;27.17;51.07
75594;BME280;64176;49.156;7.810;2023-07-09T06:51:11;99503.97;;;27.82;49.44
75594;BME280;64176;49.156;7.810;2023-07-09T06:53:55;99490.78;;;28.38;48.11
75594;BME280;64176;49.156;7.810;2023-07-09T06:56:39;99510.16;;;28.67;46.73
75594;BME280;64176;49.156;7.810;2023-07-09T06:59:22;99503.75;;;28.56;47.42
75594;BME280;64176;49.156;7.810;2023-07-09T07:02:07;99497.22;;;27.77;49.21
75594;BME280;64176;49.156;7.810;2023-07-09T07:04:52;99486.94;;;29.10;45.99
75594;BME280;64176;49.156;7.810;2023-07-09T07:07:36;99487.91;;;29.61;43.80
75594;BME280;64176;49.156;7.810;2023-07-09T07:10:22;99483.75;;;29.57;44.00
75594;BME280;64176;49.156;7.810;2023-07-09T07:13:06;99475.88;;;29.68;43.34
75594;BME280;64176;49.156;7.810;2023-07-09T07:15:53;99474.38;;;30.15;42.60
75594;BME280;64176;49.156;7.810;2023-07-09T07:18:37;99476.41;;;29.98;42.95
75594;BME280;64176;49.156;7.810;2023-07-09T07:21:21;99472.72;;;30.37;42.12
75594;BME280;64176;49.156;7.810;2023-07-09T07:24:06;99470.97;;;30.97;40.96
75594;BME280;64176;49.156;7.810;2023-07-09T07:26:50;99479.47;;;30.18;42.52
75594;BME280;64176;49.156;7.810;2023-07-09T07:29:34;99475.88;;;29.55;44.05
75594;BME280;64176;49.156;7.810;2023-07-09T07:32:20;99476.31;;;30.00;43.32
75594;BME280;64176;49.156;7.810;2023-07-09T07:35:07;99463.81;;;29.50;44.77
75594;BME280;64176;49.156;7.810;2023-07-09T07:37:51;99472.56;;;29.52;44.82
75594;BME280;64176;49.156;7.810;2023-07-09T07:40:35;99471.91;;;29.61;44.85
75594;BME280;64176;49.156;7.810;2023-07-09T07:43:21;99480.75;;;29.61;44.58
75594;BME280;64176;49.156;7.810;2023-07-09T07:46:06;99471.97;;;29.21;45.72
75594;BME280;64176;49.156;7.810;2023-07-09T07:48:51;99482.84;;;29.31;45.91
75594;BME280;64176;49.156;7.810;2023-07-09T07:51:35;99469.94;;;29.25;44.06
75594;BME280;64176;49.156;7.810;2023-07-09T07:54:19;99472.19;;;29.31;44.52
75594;BME280;64176;49.156;7.810;2023-07-09T07:57:03;99472.16;;;29.58;44.18
75594;BME280;64176;49.156;7.810;2023-07-09T07:59:50;99468.81;;;29.42;44.96
75594;BME280;64176;49.156;7.810;2023-07-09T08:02:34;99465.41;;;29.65;43.61
75594;BME280;64176;49.156;7.810;2023-07-09T08:05:20;99467.41;;;29.36;44.53
75594;BME280;64176;49.156;7.810;2023-07-09T08:08:05;99464.25;;;29.82;44.79
75594;BME280;64176;49.156;7.810;2023-07-09T08:11:06;99468.94;;;29.78;44.41
75594;BME280;64176;49.156;7.810;2023-07-09T08:13:52;99463.16;;;29.84;43.83
75594;BME280;64176;49.156;7.810;2023-07-09T08:16:37;99469.25;;;30.12;43.14
75594;BME280;64176;49.156;7.810;2023-07-09T08:19:21;99471.72;;;30.15;42.77
75594;BME280;64176;49.156;7.810;2023-07-09T08:22:05;99471.34;;;30.19;42.81
75594;BME280;64176;49.156;7.810;2023-07-09T08:24:52;99467.94;;;30.17;42.62
75594;BME280;64176;49.156;7.810;2023-07-09T08:27:36;99469.47;;;30.09;43.25
75594;BME280;64176;49.156;7.810;2023-07-09T08:30:20;99464.03;;;30.10;42.85
75594;BME280;64176;49.156;7.810;2023-07-09T08:33:07;99466.63;;;30.35;42.75
75594;BME280;64176;49.156;7.810;2023-07-09T08:35:52;99459.53;;;30.60;41.96
75594;BME280;64176;49.156;7.810;2023-07-09T08:38:36;99456.13;;;30.58;41.54
75594;BME280;64176;49.156;7.810;2023-07-09T08:41:44;99447.09;;;30.71;40.74
75594;BME280;64176;49.156;7.810;2023-07-09T08:51:08;99443.13;;;31.47;38.63
75594;BME280;64176;49.156;7.810;2023-07-09T08:53:57;99450.97;;;31.37;38.92
75594;BME280;64176;49.156;7.810;2023-07-09T08:56:42;99452.16;;;31.11;38.88
75594;BME280;64176;49.156;7.810;2023-07-09T08:59:27;99446.47;;;31.27;37.77
75594;BME280;64176;49.156;7.810;2023-07-09T09:02:19;99443.16;;;30.88;37.13
75594;BME280;64176;49.156;7.810;2023-07-09T09:05:06;99453.16;;;30.97;38.32
75594;BME280;64176;49.156;7.810;2023-07-09T09:08:08;99448.31;;;31.02;38.67
75594;BME280;64176;49.156;7.810;2023-07-09T09:11:19;99447.44;;;31.15;37.56
75594;BME280;64176;49.156;7.810;2023-07-09T09:17:14;99438.13;;;31.42;36.81
75594;BME280;64176;49.156;7.810;2023-07-09T09:20:02;99437.88;;;31.34;37.09
75594;BME280;64176;49.156;7.810;2023-07-09T09:22:58;99443.44;;;31.31;36.66
75594;BME280;64176;49.156;7.810;2023-07-09T09:25:49;99437.75;;;31.25;35.59
75594;BME280;64176;49.156;7.810;2023-07-09T09:28:39;99427.94;;;31.36;36.18
75594;BME280;64176;49.156;7.810;2023-07-09T09:31:27;99431.06;;;31.30;35.75
75594;BME280;64176;49.156;7.810;2023-07-09T09:34:22;99427.56;;;31.06;36.14
75594;BME280;64176;49.156;7.810;2023-07-09T09:37:10;99425.06;;;30.81;37.33
75594;BME280;64176;49.156;7.810;2023-07-09T09:39:56;99417.47;;;30.98;37.12
75594;BME280;64176;49.156;7.810;2023-07-09T09:42:41;99413.91;;;31.10;36.71
75594;BME280;64176;49.156;7.810;2023-07-09T09:45:38;99409.69;;;31.30;36.51
75594;BME280;64176;49.156;7.810;2023-07-09T09:48:31;99404.03;;;31.57;35.92
75594;BME280;64176;49.156;7.810;2023-07-09T09:51:17;99405.38;;;31.74;35.19
75594;BME280;64176;49.156;7.810;2023-07-09T09:54:14;99390.03;;;31.31;35.17
75594;BME280;64176;49.156;7.810;2023-07-09T09:56:59;99398.06;;;31.54;35.79
75594;BME280;64176;49.156;7.810;2023-07-09T09:59:46;99396.97;;;31.34;34.41
75594;BME280;64176;49.156;7.810;2023-07-09T10:02:38;99391.25;;;31.38;34.77
75594;BME280;64176;49.156;7.810;2023-07-09T10:05:31;99399.56;;;31.69;35.01
75594;BME280;64176;49.156;7.810;2023-07-09T10:14:47;99385.31;;;32.24;31.76
75594;BME280;64176;49.156;7.810;2023-07-09T10:17:41;99375.47;;;32.02;32.20
75594;BME280;64176;49.156;7.810;2023-07-09T10:20:34;99394.31;;;32.12;31.50
75594;BME280;64176;49.156;7.810;2023-07-09T10:23:33;99390.41;;;31.94;32.31
75594;BME280;64176;49.156;7.810;2023-07-09T10:26:24;99397.19;;;32.31;31.22
75594;BME280;64176;49.156;7.810;2023-07-09T10:29:24;99389.81;;;32.12;31.27
75594;BME280;64176;49.156;7.810;2023-07-09T10:41:01;99368.91;;;32.49;30.10
75594;BME280;64176;49.156;7.810;2023-07-09T10:43:54;99363.88;;;32.67;30.17
75594;BME280;64176;49.156;7.810;2023-07-09T10:46:43;99379.31;;;32.75;29.96
75594;BME280;64176;49.156;7.810;2023-07-09T10:49:40;99386.50;;;32.74;29.32
75594;BME280;64176;49.156;7.810;2023-07-09T10:52:28;99390.56;;;32.58;29.67
75594;BME280;64176;49.156;7.810;2023-07-09T10:55:29;99380.91;;;32.98;29.20
75594;BME280;64176;49.156;7.810;2023-07-09T10:58:36;99389.66;;;33.00;28.76
75594;BME280;64176;49.156;7.810;2023-07-09T11:01:35;99381.09;;;33.06;28.92
75594;BME280;64176;49.156;7.810;2023-07-09T11:04:29;99380.09;;;32.86;28.09
75594;BME280;64176;49.156;7.810;2023-07-09T11:07:23;99382.06;;;32.84;28.07
75594;BME280;64176;49.156;7.810;2023-07-09T11:10:23;99379.56;;;32.92;27.75
75594;BME280;64176;49.156;7.810;2023-07-09T11:13:21;99376.81;;;32.83;27.57
75594;BME280;64176;49.156;7.810;2023-07-09T11:16:14;99362.75;;;33.02;27.35
75594;BME280;64176;49.156;7.810;2023-07-09T11:19:01;99363.34;;;33.56;26.88
75594;BME280;64176;49.156;7.810;2023-07-09T11:22:03;99359.38;;;33.51;26.64
75594;BME280;64176;49.156;7.810;2023-07-09T11:28:00;99358.13;;;33.85;26.24
75594;BME280;64176;49.156;7.810;2023-07-09T11:33:30;99355.84;;;33.50;25.40
75594;BME280;64176;49.156;7.810;2023-07-09T11:36:24;99348.94;;;33.27;26.72
75594;BME280;64176;49.156;7.810;2023-07-09T11:42:32;99359.41;;;33.30;26.42
75594;BME280;64176;49.156;7.810;2023-07-09T11:45:21;99353.78;;;33.33;25.33
75594;BME280;64176;49.156;7.810;2023-07-09T11:48:19;99352.44;;;33.48;25.41
75594;BME280;64176;49.156;7.810;2023-07-09T11:51:14;99348.34;;;33.44;26.67
75594;BME280;64176;49.156;7.810;2023-07-09T11:54:00;99359.53;;;33.29;25.80
75594;BME280;64176;49.156;7.810;2023-07-09T11:56:56;99353.16;;;33.50;25.60
75594;BME280;64176;49.156;7.810;2023-07-09T11:59:41;99341.75;;;33.28;25.53
75594;BME280;64176;49.156;7.810;2023-07-09T12:02:32;99353.16;;;33.81;25.56
75594;BME280;64176;49.156;7.810;2023-07-09T12:05:26;99341.63;;;33.59;25.64
75594;BME280;64176;49.156;7.810;2023-07-09T12:08:14;99339.00;;;33.69;24.32
75594;BME280;64176;49.156;7.810;2023-07-09T12:10:59;99319.88;;;33.53;23.15
75594;BME280;64176;49.156;7.810;2023-07-09T12:13:43;99334.25;;;33.52;23.47
75594;BME280;64176;49.156;7.810;2023-07-09T12:16:35;99329.09;;;33.70;23.66
75594;BME280;64176;49.156;7.810;2023-07-09T12:19:21;99326.63;;;33.47;25.57
75594;BME280;64176;49.156;7.810;2023-07-09T12:22:10;99304.38;;;33.56;24.90
75594;BME280;64176;49.156;7.810;2023-07-09T12:24:58;99313.66;;;33.92;24.37
75594;BME280;64176;49.156;7.810;2023-07-09T12:27:43;99320.06;;;34.11;25.43
75594;BME280;64176;49.156;7.810;2023-07-09T12:30:32;99310.88;;;33.23;26.56
75594;BME280;64176;49.156;7.810;2023-07-09T12:33:18;99300.97;;;33.54;26.79
75594;BME280;64176;49.156;7.810;2023-07-09T12:36:04;99295.78;;;33.62;27.10
75594;BME280;64176;49.156;7.810;2023-07-09T12:38:51;99304.03;;;33.80;26.13
75594;BME280;64176;49.156;7.810;2023-07-09T12:41:44;99295.34;;;33.57;25.56
75594;BME280;64176;49.156;7.810;2023-07-09T12:44:32;99287.97;;;33.90;26.60
75594;BME280;64176;49.156;7.810;2023-07-09T12:47:18;99292.25;;;34.02;24.87
75594;BME280;64176;49.156;7.810;2023-07-09T12:50:18;99279.22;;;33.97;25.42
75594;BME280;64176;49.156;7.810;2023-07-09T12:53:11;99277.25;;;33.90;25.60
75594;BME280;64176;49.156;7.810;2023-07-09T12:56:01;99270.91;;;34.01;25.94
75594;BME280;64176;49.156;7.810;2023-07-09T12:58:45;99279.28;;;34.46;24.91
75594;BME280;64176;49.156;7.810;2023-07-09T13:01:33;99276.88;;;34.33;24.78
75594;BME280;64176;49.156;7.810;2023-07-09T13:04:20;99276.59;;;34.46;25.78
75594;BME280;64176;49.156;7.810;2023-07-09T13:07:04;99288.00;;;34.09;23.67
75594;BME280;64176;49.156;7.810;2023-07-09T13:09:51;99299.69;;;33.89;24.46
75594;BME280;64176;49.156;7.810;2023-07-09T13:12:39;99286.69;;;33.84;25.34
75594;BME280;64176;49.156;7.810;2023-07-09T13:18:12;99285.56;;;33.87;24.62
75594;BME280;64176;49.156;7.810;2023-07-09T13:20:59;99280.63;;;33.92;24.55
75594;BME280;64176;49.156;7.810;2023-07-09T13:23:44;99277.66;;;33.85;25.35
75594;BME280;64176;49.156;7.810;2023-07-09T13:26:28;99272.31;;;34.14;24.32
75594;BME280;64176;49.156;7.810;2023-07-09T13:29:17;99267.94;;;34.04;24.14
75594;BME280;64176;49.156;7.810;2023-07-09T13:32:01;99271.47;;;34.14;25.06
75594;BME280;64176;49.156;7.810;2023-07-09T13:34:46;99264.56;;;34.02;25.98
75594;BME280;64176;49.156;7.810;2023-07-09T13:37:32;99252.84;;;34.22;25.46
75594;BME280;64176;49.156;7.810;2023-07-09T13:40:16;99256.78;;;34.47;25.27
75594;BME280;64176;49.156;7.810;2023-07-09T13:43:01;99250.88;;;34.53;24.62
75594;BME280;64176;49.156;7.810;2023-07-09T13:45:45;99236.91;;;34.11;24.89
75594;BME280;64176;49.156;7.810;2023-07-09T13:48:31;99243.66;;;34.05;25.57
75594;BME280;64176;49.156;7.810;2023-07-09T13:51:21;99238.00;;;34.18;27.32
75594;BME280;64176;49.156;7.810;2023-07-09T13:54:27;99234.91;;;34.03;27.08
75594;BME280;64176;49.156;7.810;2023-07-09T13:57:18;99233.50;;;33.99;27.05
75594;BME280;64176;49.156;7.810;2023-07-09T14:00:04;99236.31;;;33.88;27.12
75594;BME280;64176;49.156;7.810;2023-07-09T14:02:49;99228.25;;;33.78;26.59
75594;BME280;64176;49.156;7.810;2023-07-09T14:05:33;99223.88;;;33.87;26.56
75594;BME280;64176;49.156;7.810;2023-07-09T14:08:18;99224.88;;;33.86;26.87
75594;BME280;64176;49.156;7.810;2023-07-09T14:11:11;99226.00;;;33.83;27.39
75594;BME280;64176;49.156;7.810;2023-07-09T14:13:58;99226.72;;;33.85;27.57
75594;BME280;64176;49.156;7.810;2023-07-09T14:16:43;99217.41;;;34.09;27.15
75594;BME280;64176;49.156;7.810;2023-07-09T14:19:26;99228.84;;;34.11;27.22
75594;BME280;64176;49.156;7.810;2023-07-09T14:25:03;99231.94;;;33.87;27.00
75594;BME280;64176;49.156;7.810;2023-07-09T14:27:52;99213.88;;;33.89;26.30
75594;BME280;64176;49.156;7.810;2023-07-09T14:30:36;99228.28;;;33.97;26.29
75594;BME280;64176;49.156;7.810;2023-07-09T14:33:21;99226.84;;;33.93;26.91
75594;BME280;64176;49.156;7.810;2023-07-09T14:36:06;99233.78;;;33.96;27.23
75594;BME280;64176;49.156;7.810;2023-07-09T14:38:50;99232.91;;;33.86;26.95
75594;BME280;64176;49.156;7.810;2023-07-09T14:41:34;99227.28;;;33.98;27.75
75594;BME280;64176;49.156;7.810;2023-07-09T14:44:25;99222.78;;;33.89;27.40
75594;BME280;64176;49.156;7.810;2023-07-09T14:47:16;99224.88;;;33.86;27.13
75594;BME280;64176;49.156;7.810;2023-07-09T14:50:01;99226.00;;;34.03;27.67
75594;BME280;64176;49.156;7.810;2023-07-09T14:52:46;99226.00;;;34.03;27.51
75594;BME280;64176;49.156;7.810;2023-07-09T14:55:30;99232.66;;;33.79;26.91
75594;BME280;64176;49.156;7.810;2023-07-09T14:58:19;99238.28;;;33.76;26.70
75594;BME280;64176;49.156;7.810;2023-07-09T15:01:05;99242.88;;;33.74;26.98
75594;BME280;64176;49.156;7.810;2023-07-09T15:03:53;99244.00;;;33.62;27.07
75594;BME280;64176;49.156;7.810;2023-07-09T15:06:37;99239.63;;;33.61;27.47
75594;BME280;64176;49.156;7.810;2023-07-09T15:09:27;99249.78;;;33.57;27.33
75594;BME280;64176;49.156;7.810;2023-07-09T15:12:16;99246.78;;;33.51;27.70
75594;BME280;64176;49.156;7.810;2023-07-09T15:15:23;99244.38;;;33.48;28.26
75594;BME280;64176;49.156;7.810;2023-07-09T15:18:11;99250.41;;;33.31;28.57
75594;BME280;64176;49.156;7.810;2023-07-09T15:20:57;99257.28;;;33.23;28.85
75594;BME280;64176;49.156;7.810;2023-07-09T15:23:42;99254.84;;;33.20;28.75
75594;BME280;64176;49.156;7.810;2023-07-09T15:26:28;99252.13;;;33.11;29.54
75594;BME280;64176;49.156;7.810;2023-07-09T15:29:14;99258.72;;;33.07;29.50